sensor_id;sensor_type;location;lat;lon;timestamp;pressure;altitude;pressure_sealevel;temperature;humidity
49709;BME280;35601;55.902;13.606;2023-02-18T00:00:05;99139.70;;;1.16;70.38
49709;BME280;35601;55.902;13.606;2023-02-18T00:02:28;99161.05;;;1.05;71.17
49709;BME280;35601;55.902;13.606;2023-02-18T00:04:54;99156.32;;;1.11;71.80
49709;BME280;35601;55.902;13.606;2023-02-18T00:07:18;99162.83;;;1.14;71.32
49709;BME280;35601;55.902;13.606;2023-02-18T00:09:44;99176.69;;;1.49;71.57
49709;BME280;35601;55.902;13.606;2023-02-18T00:12:10;99180.04;;;1.36;70.98
49709;BME280;35601;55.902;13.606;2023-02-18T00:14:35;99166.25;;;0.90;72.18
49709;BME280;35601;55.902;13.606;2023-02-18T00:17:00;99187.51;;;0.93;71.86
49709;BME280;35601;55.902;13.606;2023-02-18T00:19:25;99177.45;;;1.08;71.50
49709;BME280;35601;55.902;13.606;2023-02-18T00:21:51;99181.01;;;0.96;71.76
49709;BME280;35601;55.902;13.606;2023-02-18T00:24:16;99208.67;;;0.75;70.98
49709;BME280;35601;55.902;13.606;2023-02-18T00:26:42;99208.93;;;0.93;71.22
49709;BME280;35601;55.902;13.606;2023-02-18T00:29:07;99200.17;;;0.75;71.00
49709;BME280;35601;55.902;13.606;2023-02-18T00:31:34;99205.86;;;1.09;71.04
49709;BME280;35601;55.902;13.606;2023-02-18T00:33:57;99231.60;;;1.02;71.00
49709;BME280;35601;55.902;13.606;2023-02-18T00:36:23;99233.91;;;1.04;71.07
49709;BME280;35601;55.902;13.606;2023-02-18T00:38:49;99229.43;;;0.95;70.37
49709;BME280;35601;55.902;13.606;2023-02-18T00:41:13;99242.08;;;1.53;70.03
49709;BME280;35601;55.902;13.606;2023-02-18T00:43:38;99251.02;;;1.15;71.41
49709;BME280;35601;55.902;13.606;2023-02-18T00:46:04;99231.43;;;1.01;71.73
49709;BME280;35601;55.902;13.606;2023-02-18T00:48:29;99250.25;;;0.93;72.03
49709;BME280;35601;55.902;13.606;2023-02-18T00:50:54;99271.22;;;1.17;71.93
49709;BME280;35601;55.902;13.606;2023-02-18T00:53:20;99275.77;;;1.08;71.80
49709;BME280;35601;55.902;13.606;2023-02-18T00:55:46;99300.29;;;0.82;71.99
49709;BME280;35601;55.902;13.606;2023-02-18T00:58:11;99286.49;;;0.97;72.23
49709;BME280;35601;55.902;13.606;2023-02-18T01:00:37;99289.16;;;0.97;72.38
49709;BME280;35601;55.902;13.606;2023-02-18T01:03:02;99290.45;;;0.93;72.43
49709;BME280;35601;55.902;13.606;2023-02-18T01:05:27;99281.49;;;0.46;72.86
49709;BME280;35601;55.902;13.606;2023-02-18T01:07:53;99298.48;;;1.08;72.08
49709;BME280;35601;55.902;13.606;2023-02-18T01:10:19;99316.60;;;1.07;72.56
49709;BME280;35601;55.902;13.606;2023-02-18T01:12:44;99291.20;;;0.60;72.59
49709;BME280;35601;55.902;13.606;2023-02-18T01:15:11;99303.55;;;0.69;72.37
49709;BME280;35601;55.902;13.606;2023-02-18T01:17:34;99299.78;;;0.73;72.06
49709;BME280;35601;55.902;13.606;2023-02-18T01:20:00;99315.42;;;0.82;72.26
49709;BME280;35601;55.902;13.606;2023-02-18T01:22:25;99327.65;;;0.64;73.06
49709;BME280;35601;55.902;13.606;2023-02-18T01:24:50;99338.71;;;0.65;72.28
49709;BME280;35601;55.902;13.606;2023-02-18T01:27:16;99325.26;;;0.77;72.17
49709;BME280;35601;55.902;13.606;2023-02-18T01:29:41;99333.31;;;0.78;72.93
49709;BME280;35601;55.902;13.606;2023-02-18T01:32:06;99320.66;;;0.78;73.14
49709;BME280;35601;55.902;13.606;2023-02-18T01:34:31;99337.63;;;0.73;72.61
49709;BME280;35601;55.902;13.606;2023-02-18T01:36:57;99359.31;;;0.57;73.41
49709;BME280;35601;55.902;13.606;2023-02-18T01:39:23;99342.26;;;0.81;72.21
49709;BME280;35601;55.902;13.606;2023-02-18T01:41:48;99354.37;;;0.71;72.31
49709;BME280;35601;55.902;13.606;2023-02-18T01:44:16;99351.28;;;0.66;72.75
49709;BME280;35601;55.902;13.606;2023-02-18T01:46:39;99345.41;;;0.80;72.74
49709;BME280;35601;55.902;13.606;2023-02-18T01:49:06;99355.82;;;0.43;73.21
49709;BME280;35601;55.902;13.606;2023-02-18T01:51:33;99357.25;;;0.76;72.82
49709;BME280;35601;55.902;13.606;2023-02-18T01:54:01;99366.32;;;0.84;72.18
49709;BME280;35601;55.902;13.606;2023-02-18T01:56:29;99365.95;;;1.05;71.65
49709;BME280;35601;55.902;13.606;2023-02-18T01:58:47;99367.48;;;0.72;72.11
49709;BME280;35601;55.902;13.606;2023-02-18T02:01:13;99366.87;;;0.68;72.94
49709;BME280;35601;55.902;13.606;2023-02-18T02:03:38;99388.50;;;0.43;73.21
49709;BME280;35601;55.902;13.606;2023-02-18T02:06:09;99388.49;;;0.44;73.16
49709;BME280;35601;55.902;13.606;2023-02-18T02:08:29;99390.11;;;0.31;73.14
49709;BME280;35601;55.902;13.606;2023-02-18T02:11:10;99407.87;;;0.70;72.43
49709;BME280;35601;55.902;13.606;2023-02-18T02:13:26;99404.16;;;0.66;72.13
49709;BME280;35601;55.902;13.606;2023-02-18T02:15:49;99401.93;;;1.19;71.16
49709;BME280;35601;55.902;13.606;2023-02-18T02:18:20;99427.14;;;0.96;71.86
49709;BME280;35601;55.902;13.606;2023-02-18T02:20:47;99432.19;;;0.78;71.50
49709;BME280;35601;55.902;13.606;2023-02-18T02:25:42;99432.47;;;-0.35;71.67
49709;BME280;35601;55.902;13.606;2023-02-18T02:28:09;99422.78;;;0.55;72.38
49709;BME280;35601;55.902;13.606;2023-02-18T02:30:33;99441.46;;;0.25;74.19
49709;BME280;35601;55.902;13.606;2023-02-18T02:33:04;99462.01;;;0.42;73.33
49709;BME280;35601;55.902;13.606;2023-02-18T02:35:10;99454.74;;;0.44;73.16
49709;BME280;35601;55.902;13.606;2023-02-18T02:37:40;99460.02;;;1.13;72.54
49709;BME280;35601;55.902;13.606;2023-02-18T02:40:09;99466.79;;;0.77;74.04
49709;BME280;35601;55.902;13.606;2023-02-18T02:42:30;99458.17;;;0.91;72.60
49709;BME280;35601;55.902;13.606;2023-02-18T02:44:55;99443.96;;;0.60;73.41
49709;BME280;35601;55.902;13.606;2023-02-18T02:47:22;99459.24;;;0.53;74.10
49709;BME280;35601;55.902;13.606;2023-02-18T02:49:48;99468.85;;;0.80;73.56
49709;BME280;35601;55.902;13.606;2023-02-18T02:52:11;99474.84;;;0.70;73.17
49709;BME280;35601;55.902;13.606;2023-02-18T02:54:33;99475.41;;;0.67;74.21
49709;BME280;35601;55.902;13.606;2023-02-18T02:57:08;99470.26;;;0.75;73.97
49709;BME280;35601;55.902;13.606;2023-02-18T02:59:24;99482.09;;;0.89;73.84
49709;BME280;35601;55.902;13.606;2023-02-18T03:01:59;99485.55;;;0.91;74.13
49709;BME280;35601;55.902;13.606;2023-02-18T03:04:28;99473.60;;;0.70;74.94
49709;BME280;35601;55.902;13.606;2023-02-18T03:06:57;99477.57;;;0.74;74.51
49709;BME280;35601;55.902;13.606;2023-02-18T03:09:11;99491.61;;;1.10;73.83
49709;BME280;35601;55.902;13.606;2023-02-18T03:11:37;99496.10;;;0.45;74.98
49709;BME280;35601;55.902;13.606;2023-02-18T03:14:01;99494.22;;;0.65;74.95
49709;BME280;35601;55.902;13.606;2023-02-18T03:16:26;99488.78;;;0.83;74.82
49709;BME280;35601;55.902;13.606;2023-02-18T03:18:50;99492.52;;;0.76;74.08
49709;BME280;35601;55.902;13.606;2023-02-18T03:21:15;99496.93;;;0.91;73.82
49709;BME280;35601;55.902;13.606;2023-02-18T03:23:41;99518.10;;;0.55;75.39
49709;BME280;35601;55.902;13.606;2023-02-18T03:26:03;99501.87;;;0.70;74.71
49709;BME280;35601;55.902;13.606;2023-02-18T03:28:29;99509.87;;;0.78;74.10
49709;BME280;35601;55.902;13.606;2023-02-18T03:30:57;99516.80;;;0.62;74.24
49709;BME280;35601;55.902;13.606;2023-02-18T03:33:22;99520.72;;;0.52;74.54
49709;BME280;35601;55.902;13.606;2023-02-18T03:35:46;99524.12;;;0.96;73.56
49709;BME280;35601;55.902;13.606;2023-02-18T03:38:13;99529.02;;;0.75;73.13
49709;BME280;35601;55.902;13.606;2023-02-18T03:40:34;99541.22;;;0.65;73.52
49709;BME280;35601;55.902;13.606;2023-02-18T03:42:59;99538.43;;;0.85;73.59
49709;BME280;35601;55.902;13.606;2023-02-18T03:45:25;99542.00;;;0.51;73.78
49709;BME280;35601;55.902;13.606;2023-02-18T03:47:51;99551.07;;;0.72;72.81
49709;BME280;35601;55.902;13.606;2023-02-18T03:50:17;99565.05;;;0.63;73.55
49709;BME280;35601;55.902;13.606;2023-02-18T03:52:42;99555.62;;;0.58;73.59
49709;BME280;35601;55.902;13.606;2023-02-18T03:55:07;99561.01;;;0.55;73.63
49709;BME280;35601;55.902;13.606;2023-02-18T03:57:32;99562.41;;;0.79;72.65
49709;BME280;35601;55.902;13.606;2023-02-18T03:59:57;99560.88;;;0.51;73.23
49709;BME280;35601;55.902;13.606;2023-02-18T04:02:23;99571.28;;;0.65;72.85
49709;BME280;35601;55.902;13.606;2023-02-18T04:04:48;99579.44;;;0.99;71.79
49709;BME280;35601;55.902;13.606;2023-02-18T04:07:14;99584.52;;;0.62;72.46
49709;BME280;35601;55.902;13.606;2023-02-18T04:09:39;99585.61;;;0.52;72.97
49709;BME280;35601;55.902;13.606;2023-02-18T04:12:05;99574.47;;;0.79;72.79
49709;BME280;35601;55.902;13.606;2023-02-18T04:14:30;99587.39;;;0.68;72.60
49709;BME280;35601;55.902;13.606;2023-02-18T04:16:55;99583.01;;;0.44;73.27
49709;BME280;35601;55.902;13.606;2023-02-18T04:19:20;99607.78;;;0.60;73.28
49709;BME280;35601;55.902;13.606;2023-02-18T04:21:46;99608.04;;;0.65;73.14
49709;BME280;35601;55.902;13.606;2023-02-18T04:24:11;99612.91;;;0.71;72.95
49709;BME280;35601;55.902;13.606;2023-02-18T04:26:36;99603.29;;;0.45;74.04
49709;BME280;35601;55.902;13.606;2023-02-18T04:29:02;99614.65;;;0.64;73.33
49709;BME280;35601;55.902;13.606;2023-02-18T04:31:27;99616.22;;;0.36;74.26
49709;BME280;35601;55.902;13.606;2023-02-18T04:33:52;99615.19;;;0.55;73.71
49709;BME280;35601;55.902;13.606;2023-02-18T04:36:18;99617.66;;;0.44;73.36
49709;BME280;35601;55.902;13.606;2023-02-18T04:38:43;99608.39;;;0.54;73.48
49709;BME280;35601;55.902;13.606;2023-02-18T04:41:09;99606.71;;;0.64;73.34
49709;BME280;35601;55.902;13.606;2023-02-18T04:43:35;99608.68;;;0.96;72.33
49709;BME280;35601;55.902;13.606;2023-02-18T04:46:00;99612.39;;;0.67;71.98
49709;BME280;35601;55.902;13.606;2023-02-18T04:48:25;99612.10;;;0.58;71.63
49709;BME280;35601;55.902;13.606;2023-02-18T04:50:51;99607.59;;;0.71;71.53
49709;BME280;35601;55.902;13.606;2023-02-18T04:53:17;99625.43;;;0.51;72.08
49709;BME280;35601;55.902;13.606;2023-02-18T04:55:42;99625.08;;;0.56;71.11
49709;BME280;35601;55.902;13.606;2023-02-18T04:58:07;99630.46;;;0.62;71.53
49709;BME280;35601;55.902;13.606;2023-02-18T05:00:32;99637.72;;;0.74;70.95
49709;BME280;35601;55.902;13.606;2023-02-18T05:02:58;99632.12;;;0.38;71.36
49709;BME280;35601;55.902;13.606;2023-02-18T05:05:24;99630.70;;;0.59;71.57
49709;BME280;35601;55.902;13.606;2023-02-18T05:07:49;99633.95;;;0.42;71.96
49709;BME280;35601;55.902;13.606;2023-02-18T05:10:16;99644.94;;;0.57;71.10
49709;BME280;35601;55.902;13.606;2023-02-18T05:12:40;99636.63;;;0.67;70.30
49709;BME280;35601;55.902;13.606;2023-02-18T05:15:06;99642.16;;;0.64;71.25
49709;BME280;35601;55.902;13.606;2023-02-18T05:17:30;99640.55;;;0.38;72.02
49709;BME280;35601;55.902;13.606;2023-02-18T05:19:56;99658.45;;;0.58;72.04
49709;BME280;35601;55.902;13.606;2023-02-18T05:22:21;99641.45;;;0.53;72.63
49709;BME280;35601;55.902;13.606;2023-02-18T05:24:46;99635.04;;;0.31;73.07
49709;BME280;35601;55.902;13.606;2023-02-18T05:27:12;99639.20;;;0.72;72.92
49709;BME280;35601;55.902;13.606;2023-02-18T05:29:37;99645.55;;;0.36;72.86
49709;BME280;35601;55.902;13.606;2023-02-18T05:32:03;99626.91;;;0.30;73.76
49709;BME280;35601;55.902;13.606;2023-02-18T05:34:28;99636.42;;;0.38;74.03
49709;BME280;35601;55.902;13.606;2023-02-18T05:36:53;99639.22;;;0.31;74.25
49709;BME280;35601;55.902;13.606;2023-02-18T05:39:18;99634.30;;;0.24;75.06
49709;BME280;35601;55.902;13.606;2023-02-18T05:41:44;99637.07;;;0.42;74.35
49709;BME280;35601;55.902;13.606;2023-02-18T05:44:09;99643.73;;;0.87;73.37
49709;BME280;35601;55.902;13.606;2023-02-18T05:46:34;99635.65;;;0.66;73.17
49709;BME280;35601;55.902;13.606;2023-02-18T05:49:00;99641.62;;;0.98;73.07
49709;BME280;35601;55.902;13.606;2023-02-18T05:51:25;99634.43;;;0.69;73.44
49709;BME280;35601;55.902;13.606;2023-02-18T05:53:51;99633.16;;;0.46;74.90
49709;BME280;35601;55.902;13.606;2023-02-18T05:56:17;99633.94;;;-0.34;74.89
49709;BME280;35601;55.902;13.606;2023-02-18T05:58:42;99635.71;;;0.32;74.38
49709;BME280;35601;55.902;13.606;2023-02-18T06:01:08;99631.17;;;0.57;73.87
49709;BME280;35601;55.902;13.606;2023-02-18T06:03:33;99625.29;;;0.40;75.07
49709;BME280;35601;55.902;13.606;2023-02-18T06:05:58;99628.42;;;0.84;74.76
49709;BME280;35601;55.902;13.606;2023-02-18T06:08:24;99627.95;;;0.59;74.85
49709;BME280;35601;55.902;13.606;2023-02-18T06:10:49;99628.60;;;0.80;74.34
49709;BME280;35601;55.902;13.606;2023-02-18T06:13:14;99616.50;;;0.62;73.90
49709;BME280;35601;55.902;13.606;2023-02-18T06:15:39;99628.96;;;0.75;74.67
49709;BME280;35601;55.902;13.606;2023-02-18T06:18:05;99622.89;;;0.80;74.40
49709;BME280;35601;55.902;13.606;2023-02-18T06:20:30;99613.51;;;0.33;74.72
49709;BME280;35601;55.902;13.606;2023-02-18T06:22:55;99629.37;;;0.48;74.80
49709;BME280;35601;55.902;13.606;2023-02-18T06:25:20;99634.83;;;0.57;74.02
49709;BME280;35601;55.902;13.606;2023-02-18T06:27:45;99629.12;;;0.37;74.87
49709;BME280;35601;55.902;13.606;2023-02-18T06:30:11;99637.33;;;0.89;74.74
49709;BME280;35601;55.902;13.606;2023-02-18T06:32:36;99640.55;;;0.82;74.17
49709;BME280;35601;55.902;13.606;2023-02-18T06:35:01;99643.20;;;0.74;74.64
49709;BME280;35601;55.902;13.606;2023-02-18T06:37:27;99644.21;;;0.74;74.64
49709;BME280;35601;55.902;13.606;2023-02-18T06:39:53;99640.40;;;0.83;74.27
49709;BME280;35601;55.902;13.606;2023-02-18T06:42:18;99634.25;;;0.64;73.35
49709;BME280;35601;55.902;13.606;2023-02-18T06:44:44;99637.70;;;1.02;73.11
49709;BME280;35601;55.902;13.606;2023-02-18T06:47:09;99635.27;;;0.88;73.07
49709;BME280;35601;55.902;13.606;2023-02-18T06:49:35;99641.61;;;0.64;73.07
49709;BME280;35601;55.902;13.606;2023-02-18T06:52:01;99638.84;;;0.49;72.96
49709;BME280;35601;55.902;13.606;2023-02-18T06:54:26;99635.53;;;0.80;72.69
49709;BME280;35601;55.902;13.606;2023-02-18T06:56:52;99645.59;;;0.65;72.54
49709;BME280;35601;55.902;13.606;2023-02-18T06:59:18;99648.73;;;0.61;72.30
49709;BME280;35601;55.902;13.606;2023-02-18T07:01:43;99644.66;;;0.86;71.56
49709;BME280;35601;55.902;13.606;2023-02-18T07:04:09;99650.08;;;1.04;71.91
49709;BME280;35601;55.902;13.606;2023-02-18T07:06:35;99648.84;;;0.61;72.06
49709;BME280;35601;55.902;13.606;2023-02-18T07:09:00;99636.08;;;0.63;73.00
49709;BME280;35601;55.902;13.606;2023-02-18T07:11:26;99637.06;;;0.61;72.89
49709;BME280;35601;55.902;13.606;2023-02-18T07:13:51;99637.56;;;0.44;72.40
49709;BME280;35601;55.902;13.606;2023-02-18T07:16:17;99628.69;;;0.58;72.00
49709;BME280;35601;55.902;13.606;2023-02-18T07:18:43;99637.96;;;0.96;71.74
49709;BME280;35601;55.902;13.606;2023-02-18T07:21:08;99641.69;;;0.66;71.67
49709;BME280;35601;55.902;13.606;2023-02-18T07:23:33;99645.91;;;0.72;71.93
49709;BME280;35601;55.902;13.606;2023-02-18T07:26:04;99645.15;;;0.77;71.64
49709;BME280;35601;55.902;13.606;2023-02-18T07:28:23;99643.80;;;0.90;71.68
49709;BME280;35601;55.902;13.606;2023-02-18T07:30:49;99638.43;;;0.78;71.42
49709;BME280;35601;55.902;13.606;2023-02-18T07:33:14;99642.27;;;0.84;71.94
49709;BME280;35601;55.902;13.606;2023-02-18T07:35:40;99646.83;;;0.96;71.63
49709;BME280;35601;55.902;13.606;2023-02-18T07:38:05;99648.39;;;1.13;71.28
49709;BME280;35601;55.902;13.606;2023-02-18T07:40:30;99650.31;;;1.01;71.30
49709;BME280;35601;55.902;13.606;2023-02-18T07:42:56;99646.02;;;0.93;71.28
49709;BME280;35601;55.902;13.606;2023-02-18T07:45:21;99640.24;;;0.66;72.55
49709;BME280;35601;55.902;13.606;2023-02-18T07:47:47;99650.73;;;1.02;71.60
49709;BME280;35601;55.902;13.606;2023-02-18T07:50:12;99637.79;;;1.02;71.42
49709;BME280;35601;55.902;13.606;2023-02-18T07:52:38;99642.18;;;1.13;72.36
49709;BME280;35601;55.902;13.606;2023-02-18T07:55:03;99653.10;;;0.68;72.38
49709;BME280;35601;55.902;13.606;2023-02-18T07:57:28;99647.24;;;0.86;72.14
49709;BME280;35601;55.902;13.606;2023-02-18T07:59:53;99653.03;;;0.95;72.31
49709;BME280;35601;55.902;13.606;2023-02-18T08:02:21;99653.59;;;1.17;71.71
49709;BME280;35601;55.902;13.606;2023-02-18T08:04:45;99655.79;;;1.13;72.21
49709;BME280;35601;55.902;13.606;2023-02-18T08:07:12;99656.06;;;1.29;71.42
49709;BME280;35601;55.902;13.606;2023-02-18T08:09:36;99662.58;;;1.08;72.07
49709;BME280;35601;55.902;13.606;2023-02-18T08:12:02;99665.89;;;1.38;71.46
49709;BME280;35601;55.902;13.606;2023-02-18T08:14:27;99662.24;;;1.41;71.74
49709;BME280;35601;55.902;13.606;2023-02-18T08:16:52;99661.54;;;1.57;70.82
49709;BME280;35601;55.902;13.606;2023-02-18T08:19:18;99664.82;;;1.56;71.50
49709;BME280;35601;55.902;13.606;2023-02-18T08:21:43;99657.91;;;1.96;69.95
49709;BME280;35601;55.902;13.606;2023-02-18T08:24:09;99661.46;;;1.66;69.37
49709;BME280;35601;55.902;13.606;2023-02-18T08:26:34;99662.50;;;1.30;70.95
49709;BME280;35601;55.902;13.606;2023-02-18T08:28:59;99659.79;;;1.59;70.72
49709;BME280;35601;55.902;13.606;2023-02-18T08:31:27;99660.43;;;1.65;69.92
49709;BME280;35601;55.902;13.606;2023-02-18T08:33:51;99664.74;;;1.99;69.92
49709;BME280;35601;55.902;13.606;2023-02-18T08:36:16;99663.33;;;1.69;69.93
49709;BME280;35601;55.902;13.606;2023-02-18T08:38:42;99659.45;;;1.67;69.95
49709;BME280;35601;55.902;13.606;2023-02-18T08:41:08;99658.07;;;1.63;69.28
49709;BME280;35601;55.902;13.606;2023-02-18T08:43:33;99657.47;;;2.04;69.35
49709;BME280;35601;55.902;13.606;2023-02-18T08:45:58;99651.91;;;1.68;68.61
49709;BME280;35601;55.902;13.606;2023-02-18T08:48:23;99650.33;;;2.14;68.57
49709;BME280;35601;55.902;13.606;2023-02-18T08:50:48;99647.95;;;2.18;67.61
49709;BME280;35601;55.902;13.606;2023-02-18T08:53:13;99652.57;;;2.58;67.97
49709;BME280;35601;55.902;13.606;2023-02-18T08:55:40;99654.09;;;2.40;66.95
49709;BME280;35601;55.902;13.606;2023-02-18T08:58:04;99658.91;;;2.37;66.88
49709;BME280;35601;55.902;13.606;2023-02-18T09:00:29;99654.11;;;2.50;66.26
49709;BME280;35601;55.902;13.606;2023-02-18T09:02:55;99653.70;;;2.26;66.46
49709;BME280;35601;55.902;13.606;2023-02-18T09:05:20;99650.09;;;2.67;66.32
49709;BME280;35601;55.902;13.606;2023-02-18T09:07:46;99651.82;;;2.64;65.93
49709;BME280;35601;55.902;13.606;2023-02-18T09:10:12;99646.48;;;2.70;65.25
49709;BME280;35601;55.902;13.606;2023-02-18T09:12:37;99643.03;;;2.19;65.64
49709;BME280;35601;55.902;13.606;2023-02-18T09:15:03;99645.65;;;2.52;66.39
49709;BME280;35601;55.902;13.606;2023-02-18T09:17:27;99661.95;;;2.53;66.07
49709;BME280;35601;55.902;13.606;2023-02-18T09:19:53;99641.79;;;2.13;66.66
49709;BME280;35601;55.902;13.606;2023-02-18T09:22:18;99659.80;;;2.24;67.40
49709;BME280;35601;55.902;13.606;2023-02-18T09:24:44;99659.53;;;2.49;66.91
49709;BME280;35601;55.902;13.606;2023-02-18T09:27:08;99656.27;;;1.82;68.53
49709;BME280;35601;55.902;13.606;2023-02-18T09:29:37;99654.45;;;2.42;67.48
49709;BME280;35601;55.902;13.606;2023-02-18T09:31:59;99657.37;;;2.19;67.39
49709;BME280;35601;55.902;13.606;2023-02-18T09:34:25;99652.91;;;2.03;68.04
49709;BME280;35601;55.902;13.606;2023-02-18T09:36:50;99661.01;;;2.65;67.78
49709;BME280;35601;55.902;13.606;2023-02-18T09:39:15;99660.20;;;2.51;67.22
49709;BME280;35601;55.902;13.606;2023-02-18T09:41:43;99662.08;;;2.43;67.11
49709;BME280;35601;55.902;13.606;2023-02-18T09:44:12;99655.13;;;2.26;67.16
49709;BME280;35601;55.902;13.606;2023-02-18T09:46:35;99658.09;;;2.55;67.45
49709;BME280;35601;55.902;13.606;2023-02-18T09:49:00;99656.15;;;2.73;67.10
49709;BME280;35601;55.902;13.606;2023-02-18T09:51:22;99649.23;;;2.70;66.42
49709;BME280;35601;55.902;13.606;2023-02-18T09:53:48;99641.84;;;2.48;65.94
49709;BME280;35601;55.902;13.606;2023-02-18T09:56:16;99645.35;;;2.48;66.11
49709;BME280;35601;55.902;13.606;2023-02-18T09:58:40;99647.27;;;2.74;66.13
49709;BME280;35601;55.902;13.606;2023-02-18T10:01:09;99648.54;;;2.65;65.92
49709;BME280;35601;55.902;13.606;2023-02-18T10:03:30;99644.31;;;2.23;66.56
49709;BME280;35601;55.902;13.606;2023-02-18T10:05:58;99643.84;;;2.60;66.50
49709;BME280;35601;55.902;13.606;2023-02-18T10:08:24;99640.15;;;2.56;66.08
49709;BME280;35601;55.902;13.606;2023-02-18T10:10:47;99640.92;;;2.46;66.42
49709;BME280;35601;55.902;13.606;2023-02-18T10:13:14;99637.01;;;2.63;65.98
49709;BME280;35601;55.902;13.606;2023-02-18T10:15:37;99642.04;;;2.68;65.63
49709;BME280;35601;55.902;13.606;2023-02-18T10:18:05;99637.39;;;2.84;65.80
49709;BME280;35601;55.902;13.606;2023-02-18T10:20:29;99637.70;;;2.23;66.60
49709;BME280;35601;55.902;13.606;2023-02-18T10:22:53;99643.69;;;2.45;67.06
49709;BME280;35601;55.902;13.606;2023-02-18T10:25:20;99640.23;;;2.35;66.82
49709;BME280;35601;55.902;13.606;2023-02-18T10:27:44;99649.66;;;2.48;67.53
49709;BME280;35601;55.902;13.606;2023-02-18T10:30:20;99643.34;;;3.07;66.42
49709;BME280;35601;55.902;13.606;2023-02-18T10:32:36;99639.91;;;3.15;66.53
49709;BME280;35601;55.902;13.606;2023-02-18T10:35:04;99630.12;;;3.11;65.39
49709;BME280;35601;55.902;13.606;2023-02-18T10:37:40;99635.82;;;2.70;65.11
49709;BME280;35601;55.902;13.606;2023-02-18T10:39:58;99632.24;;;3.16;64.91
49709;BME280;35601;55.902;13.606;2023-02-18T10:42:26;99636.25;;;3.06;65.47
49709;BME280;35601;55.902;13.606;2023-02-18T10:44:50;99633.99;;;2.91;65.75
49709;BME280;35601;55.902;13.606;2023-02-18T10:47:15;99632.58;;;2.85;65.75
49709;BME280;35601;55.902;13.606;2023-02-18T10:51:59;99641.82;;;3.17;64.91
49709;BME280;35601;55.902;13.606;2023-02-18T10:54:24;99643.21;;;2.66;66.07
49709;BME280;35601;55.902;13.606;2023-02-18T10:56:50;99655.09;;;2.57;65.85
49709;BME280;35601;55.902;13.606;2023-02-18T10:59:18;99654.31;;;3.23;65.70
49709;BME280;35601;55.902;13.606;2023-02-18T11:01:40;99660.04;;;2.47;65.65
49709;BME280;35601;55.902;13.606;2023-02-18T11:04:10;99657.80;;;2.72;65.55
49709;BME280;35601;55.902;13.606;2023-02-18T11:06:32;99658.22;;;2.60;66.30
49709;BME280;35601;55.902;13.606;2023-02-18T11:08:56;99658.75;;;2.73;66.26
49709;BME280;35601;55.902;13.606;2023-02-18T11:11:23;99661.85;;;2.90;66.12
49709;BME280;35601;55.902;13.606;2023-02-18T11:13:52;99664.19;;;2.95;64.85
49709;BME280;35601;55.902;13.606;2023-02-18T11:16:11;99662.56;;;3.07;64.30
49709;BME280;35601;55.902;13.606;2023-02-18T11:18:38;99652.81;;;3.15;64.23
49709;BME280;35601;55.902;13.606;2023-02-18T11:21:03;99649.01;;;3.02;64.18
49709;BME280;35601;55.902;13.606;2023-02-18T11:23:26;99654.28;;;3.14;63.01
49709;BME280;35601;55.902;13.606;2023-02-18T11:25:55;99652.60;;;3.26;61.60
49709;BME280;35601;55.902;13.606;2023-02-18T11:28:26;99661.22;;;3.22;61.82
49709;BME280;35601;55.902;13.606;2023-02-18T11:30:44;99662.37;;;3.45;62.60
49709;BME280;35601;55.902;13.606;2023-02-18T11:33:22;99659.17;;;3.15;62.93
49709;BME280;35601;55.902;13.606;2023-02-18T11:35:34;99654.30;;;3.05;63.04
49709;BME280;35601;55.902;13.606;2023-02-18T11:37:59;99663.02;;;2.79;62.79
49709;BME280;35601;55.902;13.606;2023-02-18T11:40:27;99655.24;;;2.41;63.79
49709;BME280;35601;55.902;13.606;2023-02-18T11:42:49;99657.94;;;3.22;63.49
49709;BME280;35601;55.902;13.606;2023-02-18T11:45:26;99654.29;;;2.82;63.08
49709;BME280;35601;55.902;13.606;2023-02-18T11:47:40;99661.66;;;2.89;63.70
49709;BME280;35601;55.902;13.606;2023-02-18T11:50:16;99652.62;;;2.91;63.62
49709;BME280;35601;55.902;13.606;2023-02-18T11:52:34;99647.08;;;2.67;63.93
49709;BME280;35601;55.902;13.606;2023-02-18T11:55:03;99649.46;;;2.62;64.24
49709;BME280;35601;55.902;13.606;2023-02-18T11:57:22;99652.03;;;2.41;65.68
49709;BME280;35601;55.902;13.606;2023-02-18T11:59:47;99652.90;;;2.60;65.97
49709;BME280;35601;55.902;13.606;2023-02-18T12:02:21;99647.79;;;2.56;65.94
49709;BME280;35601;55.902;13.606;2023-02-18T12:04:42;99651.62;;;2.53;65.86
49709;BME280;35601;55.902;13.606;2023-02-18T12:07:12;99646.14;;;2.40;65.72
49709;BME280;35601;55.902;13.606;2023-02-18T12:09:32;99637.72;;;2.84;65.70
49709;BME280;35601;55.902;13.606;2023-02-18T12:11:55;99637.96;;;2.61;66.55
49709;BME280;35601;55.902;13.606;2023-02-18T12:14:20;99633.65;;;2.95;65.27
49709;BME280;35601;55.902;13.606;2023-02-18T12:16:53;99629.97;;;3.18;64.80
49709;BME280;35601;55.902;13.606;2023-02-18T12:19:23;99622.26;;;3.12;63.98
49709;BME280;35601;55.902;13.606;2023-02-18T12:21:44;99632.16;;;3.07;64.48
49709;BME280;35601;55.902;13.606;2023-02-18T12:24:09;99623.76;;;2.66;64.35
49709;BME280;35601;55.902;13.606;2023-02-18T12:26:28;99622.56;;;2.85;64.57
49709;BME280;35601;55.902;13.606;2023-02-18T12:29:02;99615.66;;;2.53;65.38
49709;BME280;35601;55.902;13.606;2023-02-18T12:31:25;99615.89;;;2.64;65.06
49709;BME280;35601;55.902;13.606;2023-02-18T12:33:52;99622.88;;;2.67;64.62
49709;BME280;35601;55.902;13.606;2023-02-18T12:36:12;99629.20;;;2.93;64.07
49709;BME280;35601;55.902;13.606;2023-02-18T12:38:52;99632.90;;;3.03;64.28
49709;BME280;35601;55.902;13.606;2023-02-18T12:41:09;99632.38;;;2.98;63.64
49709;BME280;35601;55.902;13.606;2023-02-18T12:43:32;99630.51;;;2.93;63.63
49709;BME280;35601;55.902;13.606;2023-02-18T12:46:12;99625.14;;;3.24;64.05
49709;BME280;35601;55.902;13.606;2023-02-18T12:48:33;99623.68;;;2.68;63.68
49709;BME280;35601;55.902;13.606;2023-02-18T12:50:48;99615.67;;;2.78;64.30
49709;BME280;35601;55.902;13.606;2023-02-18T12:53:19;99621.36;;;3.01;63.78